Main page
METAR-TAF:

METAR-TAF

Airports :

Qamishli Airport

Al Qamishli, Syria

latitude: 37-03N, longitude: 041-13E, elevation: 455 m

Current weather observation

The report was made 13 minutes ago, at 17:00 UTC
Wind 20 kt from the Southwest
Temperature 34°C
Humidity 12%
Pressure 1007 hPa
Visibility 10 km or more
no clouds below 1500 m and no cumulonimbus

METAR: OSKL 221700Z 22020KT CAVOK 34/01 Q1007

Time: 20:13 (17:13 UTC)


TAF: missing

Weather observations and forecasts of more than 4000 airports (METAR and TAF reports).

The available stations are represented by yellow and red dots on the map.

Hover mouse over dot to see the name of the station.

Then click to see weather observations and forecasts.

To change the map : click on the green buttons with a black cross to zoom in, on the green button with a dash to zoom out, or on the green arrows for adjacent maps.


METAR-TAF: